Terminal Aerodrome Forecast
Issued by NWS

Current Version | Previous Version | Graphics & Text | Print | Product List | Glossary On
Versions: 1 2 3 4 5 6 7 8 9 10 11 12 13 14 15 16 17 18 19 20 21 22
000
FTUS41 KPBZ 191700
TAFHLG
TAF
KHLG 191736Z 1918/2018 16008KT P6SM VCSH SCT020 OVC035
      TEMPO 1918/1922 BKN025
     FM200800 18003KT 3SM BR BKN030
     FM201400 19005KT P6SM BKN035=

USA.gov is the U.S. government's official web portal to all federal, state and local government web resources and services.